Time;durP1;ratioP1;P1;durP2;ratioP2;P2;SDS_P1;SDS_P2;PMS_P1;PMS_P2;Temp;Humidity;BMP_temperature;BMP_pressure;BME280_temperature;BME280_humidity;BME280_pressure;Samples;Min_cycle;Max_cycle;Signal;HPM_P1;HPM_P2
2023/10/25 00:00:11;;;;;;;7.20;3.53;;;;;;;8.01;100.00;99955.34;4954462;28;20031;-78
2023/10/25 00:02:36;;;;;;;4.05;3.25;;;;;;;8.02;100.00;99963.16;4939802;29;20476;-79
2023/10/25 00:05:02;;;;;;;7.97;3.40;;;;;;;7.97;100.00;99951.41;4948146;28;20034;-78
2023/10/25 00:07:27;;;;;;;5.50;3.80;;;;;;;7.92;100.00;99948.50;4948443;28;20541;-78
2023/10/25 00:09:52;;;;;;;;;;;;;;;7.87;100.00;99951.78;4948754;28;20110;-78
2023/10/25 00:12:18;;;;;;;4.93;3.33;;;;;;;7.84;100.00;99952.19;4952980;28;19926;-78
2023/10/25 00:14:43;;;;;;;5.50;3.40;;;;;;;7.79;100.00;99950.13;5695442;23;20008;-78
2023/10/25 00:17:08;;;;;;;6.43;3.97;;;;;;;7.71;100.00;99963.69;4903714;29;20024;-78
2023/10/25 00:19:34;;;;;;;;;;;;;;;7.66;100.00;99958.94;4898840;29;20044;-79
2023/10/25 00:21:59;;;;;;;4.97;4.07;;;;;;;7.65;100.00;99967.19;4900729;29;19974;-78
2023/10/25 00:24:24;;;;;;;6.10;3.63;;;;;;;7.62;100.00;99968.38;4895743;29;20036;-78
2023/10/25 00:26:50;;;;;;;;;;;;;;;7.65;100.00;99967.19;4901811;29;20039;-78
2023/10/25 00:29:16;;;;;;;5.78;3.25;;;;;;;7.62;100.00;99960.34;4896079;29;19927;-79
2023/10/25 00:31:42;;;;;;;;;;;;;;;7.64;100.00;99966.34;4908703;29;20032;-78
2023/10/25 00:34:08;;;;;;;4.72;3.45;;;;;;;7.63;100.00;99959.31;4901203;29;20379;-79
2023/10/25 00:36:33;;;;;;;;;;;;;;;7.62;100.00;99965.69;4900395;29;20024;-79
2023/10/25 00:38:58;;;;;;;4.03;3.30;;;;;;;7.57;100.00;99966.31;4903951;29;20010;-79
2023/10/25 00:41:24;;;;;;;3.67;3.35;;;;;;;7.63;100.00;99975.41;4899742;29;20036;-79
2023/10/25 00:43:49;;;;;;;;;;;;;;;7.63;100.00;99975.41;4905241;29;20029;-79
2023/10/25 00:46:24;;;;;;;8.17;3.53;;;;;;;7.57;100.00;99968.19;4893023;29;19955;-79
2023/10/25 00:48:50;;;;;;;5.97;3.40;;;;;;;7.62;100.00;99978.28;4898652;29;20035;-79
2023/10/25 00:51:16;;;;;;;5.90;3.42;;;;;;;7.63;100.00;99969.22;4895519;29;20587;-79
2023/10/25 00:53:42;;;;;;;5.72;3.50;;;;;;;7.59;100.00;99979.50;4912202;29;20083;-79
2023/10/25 00:56:10;;;;;;;3.58;3.08;;;;;;;7.65;100.00;99972.53;4895297;29;20029;-79
2023/10/25 00:58:35;;;;;;;4.70;3.25;;;;;;;7.68;100.00;99972.94;4878032;29;20028;-79
2023/10/25 01:01:03;;;;;;;6.82;3.50;;;;;;;7.63;100.00;99963.88;4900554;29;20030;-80
2023/10/25 01:03:28;;;;;;;6.68;3.47;;;;;;;7.60;100.00;99959.72;4864345;29;20048;-79
2023/10/25 01:05:54;;;;;;;5.07;3.30;;;;;;;7.67;100.00;99965.94;4896829;29;20033;-79
2023/10/25 01:08:19;;;;;;;4.97;3.60;;;;;;;7.66;100.00;99955.44;4896609;29;20021;-79
2023/10/25 01:10:46;;;;;;;;;;;;;;;7.72;100.00;99968.00;4895088;29;20592;-79
2023/10/25 01:13:14;;;;;;;3.53;3.13;;;;;;;7.72;100.00;99962.66;4887270;29;20365;-79
2023/10/25 01:15:39;;;;;;;7.47;2.90;;;;;;;7.72;100.00;99958.13;4905821;29;20413;-79
2023/10/25 01:18:05;;;;;;;6.45;3.30;;;;;;;7.74;100.00;99957.94;4906131;29;20089;-79
2023/10/25 01:20:31;;;;;;;;;;;;;;;7.73;100.00;99954.44;4910935;29;20032;-79
2023/10/25 01:22:56;;;;;;;5.60;3.05;;;;;;;7.72;100.00;99958.13;4903935;29;19923;-79
2023/10/25 01:25:22;;;;;;;5.88;3.30;;;;;;;7.72;100.00;99957.28;4901879;29;20032;-79
2023/10/25 01:27:47;;;;;;;;;;;;;;;7.70;100.00;99956.66;4899166;29;20469;-79
2023/10/25 01:30:13;;;;;;;4.37;3.10;;;;;;;7.66;100.00;99947.41;4897352;29;19926;-79
2023/10/25 01:32:38;;;;;;;6.43;3.33;;;;;;;7.64;100.00;99955.63;4886110;29;20124;-79
2023/10/25 01:35:05;;;;;;;6.13;3.28;;;;;;;7.65;100.00;99949.25;4893643;29;20029;-79
2023/10/25 01:37:30;;;;;;;5.85;3.17;;;;;;;7.67;100.00;99944.50;4895380;29;20028;-79
2023/10/25 01:39:55;;;;;;;4.07;3.20;;;;;;;7.60;100.00;99946.31;4895720;29;20396;-79
2023/10/25 01:42:21;;;;;;;;;;;;;;;7.54;100.00;99944.47;4893996;29;20059;-79
2023/10/25 01:44:46;;;;;;;5.93;3.17;;;;;;;7.51;100.00;99944.84;4896037;29;19930;-78
2023/10/25 01:47:11;;;;;;;5.85;3.50;;;;;;;7.49;100.00;99938.88;4895521;29;20037;-79
2023/10/25 01:49:37;;;;;;;;;;;;;;;7.48;100.00;99940.72;4909634;29;20024;-79
2023/10/25 01:52:02;;;;;;;5.53;2.97;;;;;;;7.42;100.00;99942.34;4911303;29;19927;-79
2023/10/25 01:54:27;;;;;;;5.30;3.45;;;;;;;7.32;100.00;99944.56;4913541;29;20033;-79
2023/10/25 01:56:53;;;;;;;;;;;;;;;7.24;100.00;99939.34;4892659;29;20526;-79
2023/10/25 01:59:18;;;;;;;4.23;3.40;;;;;;;7.17;100.00;99927.78;4898050;29;19926;-79
2023/10/25 02:01:43;;;;;;;7.13;3.78;;;;;;;7.10;100.00;99930.44;4889320;29;20051;-79
2023/10/25 02:04:09;;;;;;;;;;;;;;;7.00;100.00;99932.63;4886200;29;20478;-79
2023/10/25 02:06:34;;;;;;;4.63;3.55;;;;;;;6.92;100.00;99928.25;4894201;29;19931;-78
2023/10/25 02:08:59;;;;;;;;;;;;;;;6.93;100.00;99925.41;4893576;29;20033;-78
2023/10/25 02:11:25;;;;;;;5.67;3.23;;;;;;;6.97;100.00;99923.16;4899364;29;19934;-78
2023/10/25 02:13:50;;;;;;;6.28;3.60;;;;;;;6.86;100.00;99915.69;4891543;29;20050;-78
2023/10/25 02:16:16;;;;;;;;;;;;;;;6.77;100.00;99906.97;4902548;29;20047;-78
2023/10/25 02:18:41;;;;;;;6.85;3.10;;;;;;;6.74;100.00;99902.00;4885158;29;19930;-78
2023/10/25 02:21:07;;;;;;;5.40;3.50;;;;;;;6.80;100.00;99901.22;4900176;29;20027;-79
2023/10/25 02:23:32;;;;;;;;;;;;;;;6.76;100.00;99894.63;4900943;29;20477;-79
2023/10/25 02:25:58;;;;;;;5.60;3.67;;;;;;;6.76;100.00;99900.78;4906982;29;21776;-79
2023/10/25 02:28:23;;;;;;;5.50;3.88;;;;;;;6.72;100.00;99899.50;4896659;29;20036;-79
2023/10/25 02:30:48;;;;;;;;;;;;;;;6.72;100.00;99894.16;4897288;29;20056;-79
2023/10/25 02:33:14;;;;;;;6.22;3.33;;;;;;;6.74;100.00;99894.00;4900519;29;19927;-78
2023/10/25 02:35:39;;;;;;;;;;;;;;;6.72;100.00;99894.16;4898083;29;20359;-79
2023/10/25 02:38:10;;;;;;;3.80;3.40;;;;;;;6.71;100.00;99887.16;4892741;29;19924;-79
2023/10/25 02:40:36;;;;;;;3.97;3.47;;;;;;;6.65;100.00;99885.28;4891244;29;21404;-79
2023/10/25 02:43:01;;;;;;;;;;;;;;;6.63;100.00;99888.13;4897253;29;20029;-80
2023/10/25 02:45:27;;;;;;;7.53;3.78;;;;;;;6.61;100.00;99886.69;4899023;29;19927;-79
2023/10/25 02:47:53;;;;;;;;;;;;;;;6.51;100.00;99885.19;4901089;29;20036;-79
2023/10/25 02:50:19;;;;;;;6.33;3.50;;;;;;;6.46;100.00;99882.28;4897380;29;19923;-78
2023/10/25 02:52:47;;;;;;;;;;;;;;;6.46;100.00;99882.28;4894703;29;20323;-79
2023/10/25 02:55:13;;;;;;;4.55;3.28;;;;;;;6.49;100.00;99878.38;4889091;29;19920;-80
2023/10/25 02:57:38;;;;;;;;;;;;;;;6.55;100.00;99879.44;4888107;29;20031;-78
2023/10/25 03:00:06;;;;;;;6.20;3.53;;;;;;;6.55;100.00;99877.59;4894532;29;20006;-79
2023/10/25 03:02:31;;;;;;;5.82;3.53;;;;;;;6.57;100.00;99864.03;4898932;29;20036;-80
2023/10/25 03:04:57;;;;;;;;;;;;;;;6.60;100.00;99866.31;4895404;29;20384;-79
2023/10/25 03:07:23;;;;;;;7.38;3.50;;;;;;;6.57;100.00;99864.88;4896534;29;19922;-80
2023/10/25 03:09:48;;;;;;;;;;;;;;;6.59;100.00;99856.63;4875090;29;20043;-80
2023/10/25 03:12:13;;;;;;;5.60;3.60;;;;;;;6.56;100.00;99859.69;4894644;29;19923;-80
2023/10/25 03:14:38;;;;;;;;;;;;;;;6.63;100.00;99853.38;4899268;29;20032;-80
2023/10/25 03:17:04;;;;;;;3.97;2.93;;;;;;;6.64;100.00;99859.56;4902842;29;19919;-80
2023/10/25 03:19:29;;;;;;;4.40;3.50;;;;;;;6.61;100.00;99868.81;4994268;23;20059;-80
2023/10/25 03:21:56;;;;;;;4.95;3.30;;;;;;;6.60;100.00;99864.50;4955598;28;20035;-80
2023/10/25 03:24:21;;;;;;;6.75;3.45;;;;;;;6.61;100.00;99865.28;4976350;23;20065;-80
2023/10/25 03:26:46;;;;;;;;;;;;;;;6.51;100.00;99855.78;4952214;28;20272;-80
2023/10/25 03:29:12;;;;;;;6.07;3.40;;;;;;;6.51;100.00;99855.78;4941199;28;19962;-80
2023/10/25 03:31:40;;;;;;;;;;;;;;;6.41;100.00;99849.94;4939198;28;20114;-80
2023/10/25 03:34:06;;;;;;;7.25;3.50;;;;;;;6.33;100.00;99847.44;4945672;28;19919;-80
2023/10/25 03:36:31;;;;;;;;;;;;;;;6.30;100.00;99840.59;4948954;28;20090;-80
2023/10/25 03:38:57;;;;;;;6.90;3.73;;;;;;;6.38;100.00;99844.97;4952152;28;20237;-80
2023/10/25 03:41:22;;;;;;;;;;;;;;;6.46;100.00;99844.84;4946375;28;20148;-80
2023/10/25 03:43:47;;;;;;;7.37;3.40;;;;;;;6.40;100.00;99836.78;4945455;28;20427;-81
2023/10/25 03:46:12;;;;;;;;;;;;;;;6.33;100.00;99834.06;4943999;28;20421;-80
2023/10/25 03:48:41;;;;;;;7.47;3.50;;;;;;;6.27;100.00;99832.97;4941549;28;19915;-79
2023/10/25 03:51:07;;;;;;;6.45;3.47;;;;;;;6.22;100.00;99833.56;4942743;28;20032;-80
2023/10/25 03:53:32;;;;;;;;;;;;;;;6.18;100.00;99826.94;4948566;28;20049;-80
2023/10/25 03:55:58;;;;;;;7.40;3.60;;;;;;;6.20;100.00;99827.56;5014597;23;19973;-79
2023/10/25 03:58:23;;;;;;;;;;;;;;;6.11;100.00;99822.56;4912817;29;20043;-79
2023/10/25 04:00:48;;;;;;;6.70;4.00;;;;;;;6.05;100.00;99819.66;4930491;29;19919;-79
2023/10/25 04:03:14;;;;;;;;;;;;;;;6.01;100.00;99818.38;4915407;29;20053;-79
2023/10/25 04:05:39;;;;;;;8.60;4.10;;;;;;;5.96;100.00;99819.94;4932968;29;19919;-86
2023/10/25 04:08:08;;;;;;;;;;;;;;;5.91;100.00;99817.88;4935315;29;20098;-81
2023/10/25 04:10:33;;;;;;;7.28;4.32;;;;;;;5.85;100.00;99819.44;4931647;29;19930;-80
2023/10/25 04:13:01;;;;;;;;;;;;;;;5.74;100.00;99817.28;4940626;29;20035;-87
2023/10/25 04:15:34;;;;;;;5.75;4.13;;;;;;;5.71;100.00;99812.31;4932516;29;19966;-88
2023/10/25 04:20:34;;;;;;;7.90;4.78;;;;;;;5.61;100.00;99809.97;4940890;29;20740;-82
2023/10/25 04:23:05;;;;;;;7.25;4.78;;;;;;;5.57;100.00;99808.69;4951577;28;20555;-82
2023/10/25 04:25:47;;;;;;;9.85;5.20;;;;;;;5.60;100.00;99803.81;4945372;28;20380;-81
2023/10/25 04:35:36;;;;;;;11.80;6.00;;;;;;;5.71;100.00;99806.97;4952669;28;20058;-83
2023/10/25 04:38:38;;;;;;;10.70;5.88;;;;;;;5.81;100.00;99807.50;4953842;28;20043;-83
2023/10/25 04:41:13;;;;;;;10.90;6.70;;;;;;;5.82;100.00;99803.81;4948444;28;20476;-83
2023/10/25 04:43:38;;;;;;;13.93;6.93;;;;;;;5.78;100.00;99794.53;4952645;28;20031;-83
2023/10/25 04:46:26;;;;;;;;;;;;;;;5.82;100.00;99793.13;4953281;28;20020;-83
2023/10/25 04:49:04;;;;;;;10.55;6.55;;;;;;;5.81;100.00;99779.94;4929045;28;19929;-83
2023/10/25 04:52:03;;;;;;;12.32;6.88;;;;;;;5.82;100.00;99787.78;4954549;28;20396;-83
2023/10/25 04:54:38;;;;;;;12.13;7.40;;;;;;;5.91;100.00;99783.94;4946516;28;20050;-83
2023/10/25 04:57:35;;;;;;;12.90;6.82;;;;;;;6.04;100.00;99774.41;4922885;28;20044;-83
2023/10/25 05:00:00;;;;;;;;;;;;;;;6.11;100.00;99780.66;4893658;29;20096;-83
2023/10/25 05:02:38;;;;;;;12.33;7.13;;;;;;;6.14;100.00;99768.72;4897641;29;19923;-83
2023/10/25 05:05:33;;;;;;;12.88;6.95;;;;;;;6.10;100.00;99764.78;4894319;29;20037;-83
2023/10/25 05:08:14;;;;;;;13.73;7.32;;;;;;;6.17;100.00;99763.00;4886932;29;20466;-83
2023/10/25 05:10:40;;;;;;;10.45;6.63;;;;;;;6.20;100.00;99758.09;4894536;29;20040;-83
2023/10/25 05:13:38;;;;;;;;;;;;;;;6.25;100.00;99764.69;4895733;29;20039;-83
2023/10/25 05:16:28;;;;;;;13.10;6.83;;;;;;;6.30;100.00;99756.94;4896627;28;19927;-83
2023/10/25 05:19:03;;;;;;;11.45;6.70;;;;;;;6.29;100.00;99755.28;4948905;28;20383;-83
2023/10/25 05:21:37;;;;;;;10.90;6.80;;;;;;;6.33;100.00;99761.88;4951530;28;20027;-83
2023/10/25 05:24:11;;;;;;;10.80;6.88;;;;;;;6.31;100.00;99758.59;4934980;28;20033;-82
2023/10/25 05:26:53;;;;;;;11.93;6.25;;;;;;;6.30;100.00;99756.94;4950222;28;20069;-83
2023/10/25 05:29:40;;;;;;;9.45;6.38;;;;;;;6.33;100.00;99756.53;4966776;28;20023;-84
2023/10/25 05:35:32;;;;;;;10.52;6.40;;;;;;;6.43;100.00;99757.00;4955531;29;19967;-83
2023/10/25 05:37:59;;;;;;;11.68;6.40;;;;;;;6.52;100.00;99761.19;4948590;28;20043;-83
2023/10/25 05:40:24;;;;;;;11.02;6.40;;;;;;;6.60;100.00;99754.00;4950544;28;20031;-83
2023/10/25 05:42:50;;;;;;;;;;;;;;;6.69;100.00;99758.19;4935012;29;20044;-83
2023/10/25 05:45:15;;;;;;;8.10;5.88;;;;;;;6.64;100.00;99753.41;4933750;28;19950;-83
2023/10/25 05:47:41;;;;;;;8.10;5.95;;;;;;;6.64;100.00;99747.25;4947137;28;20472;-83
2023/10/25 05:50:07;;;;;;;;;;;;;;;6.74;100.00;99753.03;4952447;28;20509;-83
2023/10/25 05:52:35;;;;;;;10.13;5.80;;;;;;;6.73;100.00;99751.38;4954355;28;19941;-83
2023/10/25 05:55:01;;;;;;;11.15;5.97;;;;;;;6.81;100.00;99764.59;4951246;28;20015;-83
2023/10/25 05:57:36;;;;;;;;;;;;;;;6.80;100.00;99765.63;4953309;28;20122;-83
2023/10/25 06:00:07;;;;;;;10.18;5.93;;;;;;;6.86;100.00;99763.19;4951335;28;20017;-83
2023/10/25 06:05:13;;;;;;;8.20;5.72;;;;;;;6.88;100.00;99755.78;4952842;28;20066;-83
2023/10/25 06:07:38;;;;;;;11.68;5.72;;;;;;;6.88;100.00;99753.13;4947139;28;20087;-83
2023/10/25 06:10:04;;;;;;;;;;;;;;;6.91;100.00;99753.53;4949452;28;20035;-83
2023/10/25 06:12:30;;;;;;;10.18;5.47;;;;;;;6.92;100.00;99751.66;4950734;28;19918;-84
2023/10/25 06:14:55;;;;;;;;;;;;;;;6.94;100.00;99749.63;4952217;28;20039;-83
2023/10/25 06:17:21;;;;;;;9.97;7.23;;;;;;;6.92;100.00;99744.50;4951068;28;20753;-83
2023/10/25 06:19:46;;;;;;;;;;;;;;;6.92;100.00;99743.66;4914357;29;20301;-83
2023/10/25 06:22:11;;;;;;;12.17;7.97;;;;;;;6.90;100.00;99741.19;4959148;28;19918;-83
2023/10/25 06:24:37;;;;;;;11.40;6.32;;;;;;;6.90;100.00;99738.50;4954293;28;20035;-83
2023/10/25 06:27:02;;;;;;;;;;;;;;;6.91;100.00;99744.66;4952653;28;20046;-82
2023/10/25 06:29:27;;;;;;;7.60;5.20;;;;;;;6.93;100.00;99750.66;4953204;28;20004;-83
2023/10/25 06:31:53;;;;;;;;;;;;;;;6.94;100.00;99736.25;4965173;28;20049;-85
2023/10/25 06:34:19;;;;;;;10.47;5.70;;;;;;;6.94;100.00;99736.25;4955541;28;20363;-85
2023/10/25 06:36:47;;;;;;;9.48;5.43;;;;;;;6.98;100.00;99730.28;4956361;28;20326;-84
2023/10/25 06:39:16;;;;;;;8.85;5.40;;;;;;;6.99;100.00;99720.41;4950881;28;20023;-83
2023/10/25 06:41:44;;;;;;;10.40;5.30;;;;;;;6.99;100.00;99720.41;4953439;28;20043;-81
2023/10/25 06:44:10;;;;;;;11.30;5.00;;;;;;;7.00;100.00;99718.56;4931594;29;20027;-82
2023/10/25 06:46:36;;;;;;;10.02;5.15;;;;;;;7.04;100.00;99719.81;4947710;28;20031;-82
2023/10/25 06:49:02;;;;;;;7.47;5.20;;;;;;;7.13;100.00;99716.75;4945585;28;20038;-82
2023/10/25 06:51:27;;;;;;;13.85;5.38;;;;;;;7.18;100.00;99709.97;4955319;28;20042;-82
2023/10/25 06:53:53;;;;;;;9.48;4.97;;;;;;;7.19;100.00;99709.75;4953574;28;20031;-81
2023/10/25 06:56:19;;;;;;;8.02;5.00;;;;;;;7.19;100.00;99700.91;4948808;28;20035;-83
2023/10/25 06:58:48;;;;;;;8.25;5.38;;;;;;;7.26;100.00;99702.56;4951840;28;20039;-83
2023/10/25 07:01:17;;;;;;;7.15;4.70;;;;;;;7.26;100.00;99693.69;4960323;23;21365;-83
2023/10/25 07:03:47;;;;;;;10.15;4.85;;;;;;;7.33;100.00;99685.69;4935987;29;20027;-82
2023/10/25 07:06:16;;;;;;;13.57;5.10;;;;;;;7.32;100.00;99674.16;4951095;28;20024;-82
2023/10/25 07:08:41;;;;;;;6.45;4.60;;;;;;;7.36;100.00;99670.03;4936286;28;20046;-82
2023/10/25 07:11:07;;;;;;;9.55;4.97;;;;;;;7.42;100.00;99666.53;4952675;28;20034;-81
2023/10/25 07:13:32;;;;;;;6.40;4.43;;;;;;;7.46;100.00;99664.28;4951194;28;20542;-82
2023/10/25 07:15:58;;;;;;;;;;;;;;;7.51;100.00;99666.34;4952760;28;20060;-82
2023/10/25 07:18:23;;;;;;;7.43;4.47;;;;;;;7.63;100.00;99667.34;4951648;28;19919;-81
2023/10/25 07:20:50;;;;;;;8.68;4.70;;;;;;;7.74;100.00;99664.06;4947766;28;20031;-82
2023/10/25 07:23:18;;;;;;;7.45;3.97;;;;;;;7.92;100.00;99662.59;4953466;23;20052;-81
2023/10/25 07:25:44;;;;;;;7.47;3.80;;;;;;;8.09;100.00;99662.16;4936975;29;20074;-81
2023/10/25 07:28:10;;;;;;;9.02;3.95;;;;;;;8.19;100.00;99657.16;4926900;29;20380;-81
2023/10/25 07:30:36;;;;;;;;;;;;;;;8.27;100.00;99654.28;4918130;29;20162;-82
2023/10/25 07:33:01;;;;;;;8.63;3.60;;;;;;;8.34;100.00;99660.41;4936079;29;20035;-81
2023/10/25 07:35:27;;;;;;;4.25;3.40;;;;;;;8.43;100.00;99657.50;4932540;29;20031;-81
2023/10/25 07:37:52;;;;;;;4.43;3.30;;;;;;;8.58;100.00;99659.94;4935139;29;20032;-80
2023/10/25 07:40:18;;;;;;;;;;;;;;;8.65;100.00;99650.00;4937130;29;20035;-80
2023/10/25 07:42:43;;;;;;;4.03;3.03;;;;;;;8.78;100.00;99649.13;4934844;29;19922;-80
2023/10/25 07:45:12;;;;;;;5.03;3.30;;;;;;;8.77;100.00;99640.22;4934398;29;20032;-81
2023/10/25 07:47:37;;;;;;;6.57;3.33;;;;;;;8.82;100.00;99644.97;4932912;29;20552;-80
2023/10/25 07:50:05;;;;;;;5.72;3.05;;;;;;;8.90;100.00;99625.91;4933238;29;20031;-81
2023/10/25 07:52:31;;;;;;;3.25;2.90;;;;;;;8.97;100.00;99630.44;4935531;29;20096;-80
2023/10/25 07:54:56;;;;;;;7.22;3.05;;;;;;;8.97;100.00;99625.06;4916330;29;20535;-81
2023/10/25 07:57:23;;;;;;;5.82;3.10;;;;;;;8.95;100.00;99620.75;4934005;29;20537;-80
2023/10/25 07:59:48;;;;;;;4.43;3.00;;;;;;;9.01;100.00;99611.00;4935761;29;20126;-80
2023/10/25 08:02:14;;;;;;;4.85;2.88;;;;;;;9.13;100.00;99618.34;4933067;29;20058;-81
2023/10/25 08:04:41;;;;;;;6.22;3.17;;;;;;;9.09;100.00;99608.03;4933257;29;20158;-81
2023/10/25 08:07:06;;;;;;;6.80;3.10;;;;;;;9.06;100.00;99610.31;4930628;29;20055;-81
2023/10/25 08:09:31;;;;;;;3.90;2.70;;;;;;;9.11;100.00;99610.50;4932452;29;20022;-80
2023/10/25 08:11:57;;;;;;;4.57;2.72;;;;;;;9.13;100.00;99599.53;4936789;29;20556;-80
2023/10/25 08:14:22;;;;;;;5.72;2.85;;;;;;;9.04;100.00;99594.44;4937827;29;20060;-80
2023/10/25 08:16:48;;;;;;;4.43;2.47;;;;;;;9.06;100.00;99596.91;4939296;29;20472;-80
2023/10/25 08:19:15;;;;;;;3.97;2.67;;;;;;;9.02;100.00;99593.00;4935756;29;20024;-80
2023/10/25 08:21:40;;;;;;;3.92;2.58;;;;;;;9.02;100.00;99590.31;4936250;29;20107;-80
2023/10/25 08:24:06;;;;;;;3.15;2.40;;;;;;;9.04;100.00;99593.63;4933629;29;20051;-80
2023/10/25 08:26:36;;;;;;;6.93;3.13;;;;;;;9.01;100.00;99586.81;4933439;29;20042;-80
2023/10/25 08:29:02;;;;;;;4.90;2.60;;;;;;;9.00;100.00;99587.06;4918982;29;20460;-80
2023/10/25 08:31:28;;;;;;;6.47;2.85;;;;;;;9.04;100.00;99586.41;4933971;29;20034;-79
2023/10/25 08:33:53;;;;;;;6.07;3.20;;;;;;;9.05;100.00;99587.22;4935402;29;20139;-79
2023/10/25 08:36:18;;;;;;;6.45;2.97;;;;;;;9.02;100.00;99587.63;4935455;29;20078;-79
2023/10/25 08:38:44;;;;;;;3.78;2.50;;;;;;;9.02;100.00;99582.28;4935865;29;20034;-78
2023/10/25 08:41:09;;;;;;;4.70;2.92;;;;;;;9.05;100.00;99574.63;4935880;29;20032;-78
2023/10/25 08:43:35;;;;;;;6.40;3.40;;;;;;;9.02;100.00;99582.28;4935267;29;20034;-78
2023/10/25 08:46:03;;;;;;;3.97;2.90;;;;;;;9.02;100.00;99580.41;4934764;29;20035;-78
2023/10/25 08:48:28;;;;;;;4.43;2.92;;;;;;;9.01;100.00;99580.63;4936534;29;20047;-78
2023/10/25 08:50:54;;;;;;;4.20;2.60;;;;;;;8.99;100.00;99577.38;4934743;29;20376;-80
2023/10/25 08:53:24;;;;;;;3.50;3.05;;;;;;;9.00;100.00;99571.75;4927238;29;20044;-78
2023/10/25 08:55:54;;;;;;;4.63;3.05;;;;;;;9.05;100.00;99573.78;4935534;29;20122;-80
2023/10/25 08:58:19;;;;;;;5.78;3.67;;;;;;;9.03;100.00;99576.69;4937017;29;20469;-79
2023/10/25 09:00:46;;;;;;;4.95;3.50;;;;;;;9.06;100.00;99572.75;4938734;29;20040;-78
2023/10/25 09:03:29;;;;;;;6.40;3.20;;;;;;;9.15;100.00;99573.28;4936847;29;20055;-78
2023/10/25 09:05:55;;;;;;;4.32;2.80;;;;;;;9.16;100.00;99570.41;4938753;29;20044;-78
2023/10/25 09:08:20;;;;;;;5.47;2.67;;;;;;;9.11;100.00;99572.91;4938699;29;20392;-78
2023/10/25 09:10:56;;;;;;;6.03;3.00;;;;;;;9.15;100.00;99559.88;4937400;29;20051;-78
2023/10/25 09:13:22;;;;;;;;;;;;;;;9.22;100.00;99548.03;4936615;29;20043;-78
2023/10/25 09:15:47;;;;;;;6.13;3.00;;;;;;;9.23;100.00;99546.19;4934946;29;19922;-78
2023/10/25 09:18:12;;;;;;;4.80;3.00;;;;;;;9.21;100.00;99542.91;4934714;29;20058;-79
2023/10/25 09:20:38;;;;;;;4.40;2.70;;;;;;;9.29;100.00;99537.22;4933529;29;20024;-78
2023/10/25 09:23:11;;;;;;;3.67;2.72;;;;;;;9.30;100.00;99538.88;4935053;29;20065;-77
2023/10/25 09:25:40;;;;;;;5.60;3.00;;;;;;;9.35;100.00;99536.34;4934388;29;20115;-78
2023/10/25 09:28:14;;;;;;;5.45;3.10;;;;;;;9.35;100.00;99535.53;4936056;29;20020;-78
2023/10/25 09:30:39;;;;;;;7.35;3.05;;;;;;;9.49;100.00;99526.31;4933477;29;20508;-79
2023/10/25 09:33:05;;;;;;;4.13;3.03;;;;;;;9.54;100.00;99529.13;4932598;29;20020;-80
2023/10/25 09:35:30;;;;;;;5.15;3.10;;;;;;;9.60;100.00;99511.31;4934093;29;20023;-79
2023/10/25 09:37:56;;;;;;;3.95;3.17;;;;;;;9.65;100.00;99514.13;4921403;29;20011;-80
2023/10/25 09:40:21;;;;;;;5.97;3.00;;;;;;;9.67;100.00;99512.03;4945956;29;20078;-80
2023/10/25 09:42:52;;;;;;;7.78;2.95;;;;;;;9.62;100.00;99511.06;4923982;29;20103;-80
2023/10/25 09:45:26;;;;;;;5.05;3.00;;;;;;;9.68;100.00;99502.13;4922626;29;20024;-79
2023/10/25 09:47:53;;;;;;;4.38;2.85;;;;;;;9.79;100.00;99496.00;4927816;29;20027;-81
2023/10/25 09:50:31;;;;;;;4.85;3.22;;;;;;;9.74;100.00;99495.84;4934125;29;20030;-80
2023/10/25 09:52:58;;;;;;;4.80;3.08;;;;;;;9.91;100.00;99485.31;4915580;29;20087;-79
2023/10/25 09:55:24;;;;;;;5.57;3.10;;;;;;;9.98;100.00;99485.22;4897878;29;20094;-77
2023/10/25 09:57:49;;;;;;;4.55;3.05;;;;;;;9.94;100.00;99490.25;4916539;29;20476;-80
2023/10/25 10:00:14;;;;;;;4.78;3.20;;;;;;;9.99;100.00;99481.47;4915212;29;20036;-80
2023/10/25 10:02:53;;;;;;;6.30;3.30;;;;;;;9.96;100.00;99480.09;4912874;29;20035;-80
2023/10/25 10:05:26;;;;;;;4.45;3.03;;;;;;;9.92;100.00;99476.19;4904679;29;20067;-79
2023/10/25 10:07:57;;;;;;;7.28;3.13;;;;;;;9.92;100.00;99486.13;4915401;29;20038;-78
2023/10/25 10:10:27;;;;;;;6.30;3.08;;;;;;;9.96;100.00;99471.19;4917250;29;20036;-80
2023/10/25 10:12:52;;;;;;;6.35;3.42;;;;;;;9.86;100.00;99467.19;4936832;29;20034;-80
2023/10/25 10:15:19;;;;;;;6.32;3.53;;;;;;;9.88;100.00;99460.75;4936401;29;20024;-81
2023/10/25 10:17:44;;;;;;;4.57;3.25;;;;;;;9.85;100.00;99460.16;4930472;29;20393;-81
2023/10/25 10:20:23;;;;;;;5.53;3.20;;;;;;;9.93;100.00;99455.50;4928393;29;20028;-80
2023/10/25 10:23:02;;;;;;;4.55;3.17;;;;;;;9.89;100.00;99449.75;4932382;29;20431;-78
2023/10/25 10:25:47;;;;;;;5.95;3.22;;;;;;;9.98;100.00;99445.69;4938136;29;20063;-78
2023/10/25 10:28:12;;;;;;;6.18;3.08;;;;;;;10.10;100.00;99436.88;4935603;29;20469;-78
2023/10/25 10:30:41;;;;;;;4.65;2.88;;;;;;;10.16;100.00;99439.47;4931888;29;20038;-78
2023/10/25 10:33:13;;;;;;;6.10;3.03;;;;;;;10.24;100.00;99429.41;4933750;29;20421;-78
2023/10/25 10:35:47;;;;;;;5.75;3.20;;;;;;;10.29;100.00;99426.84;4926414;29;20032;-78
2023/10/25 10:38:12;;;;;;;3.90;2.90;;;;;;;10.28;100.00;99414.47;4931694;29;20099;-78
2023/10/25 10:40:38;;;;;;;4.13;3.08;;;;;;;10.36;100.00;99421.38;4934767;29;20533;-79
2023/10/25 10:43:06;;;;;;;3.67;2.90;;;;;;;10.37;100.00;99413.09;4927866;29;20047;-76
2023/10/25 10:45:31;;;;;;;5.20;3.22;;;;;;;10.38;100.00;99413.91;4933773;29;20083;-78
2023/10/25 10:48:17;;;;;;;4.63;3.22;;;;;;;10.35;100.00;99409.81;4904568;29;20031;-78
2023/10/25 10:50:43;;;;;;;5.55;2.90;;;;;;;10.42;100.00;99405.16;4930309;29;20798;-77
2023/10/25 10:53:11;;;;;;;7.45;3.40;;;;;;;10.36;100.00;99395.31;4899107;29;20036;-77
2023/10/25 10:55:37;;;;;;;6.18;3.25;;;;;;;10.48;100.00;99405.28;4933650;29;20032;-78
2023/10/25 10:58:11;;;;;;;5.90;3.40;;;;;;;10.60;100.00;99390.78;4916723;29;20038;-77
2023/10/25 11:00:44;;;;;;;4.93;3.10;;;;;;;10.57;100.00;99385.88;4928827;29;20396;-77
2023/10/25 11:03:10;;;;;;;4.60;3.13;;;;;;;10.59;100.00;99380.28;4933267;29;20028;-78
2023/10/25 11:05:36;;;;;;;5.22;3.42;;;;;;;10.58;100.00;99378.63;4932890;29;20385;-78
2023/10/25 11:08:01;;;;;;;4.10;3.25;;;;;;;10.56;100.00;99384.25;4928307;29;20366;-77
2023/10/25 11:10:27;;;;;;;5.88;3.63;;;;;;;10.42;100.00;99378.25;4927561;29;20086;-78
2023/10/25 11:12:52;;;;;;;6.28;3.80;;;;;;;10.47;100.00;99369.50;4914499;29;20032;-78
2023/10/25 11:15:24;;;;;;;7.10;3.60;;;;;;;10.38;100.00;99366.34;4914714;29;20070;-77
2023/10/25 11:17:49;;;;;;;4.75;3.20;;;;;;;10.30;100.00;99359.41;4933615;29;20040;-77
2023/10/25 11:20:14;;;;;;;4.45;3.33;;;;;;;10.30;100.00;99363.94;4933904;29;20503;-77
2023/10/25 11:22:40;;;;;;;6.10;3.50;;;;;;;10.29;100.00;99362.31;4931844;29;20032;-78
2023/10/25 11:25:11;;;;;;;4.75;3.22;;;;;;;10.21;100.00;99355.41;4933198;29;20027;-78
2023/10/25 11:27:37;;;;;;;8.02;3.67;;;;;;;10.16;100.00;99349.88;4932883;29;20472;-77
2023/10/25 11:30:04;;;;;;;7.03;3.28;;;;;;;10.15;100.00;99357.16;4933268;29;20042;-78
2023/10/25 11:32:30;;;;;;;4.72;3.15;;;;;;;10.16;100.00;99353.41;4931096;29;20097;-77
2023/10/25 11:34:59;;;;;;;4.60;3.28;;;;;;;10.19;100.00;99345.94;4935144;29;20024;-77
2023/10/25 11:37:27;;;;;;;7.97;3.67;;;;;;;10.18;100.00;99339.72;4935420;29;20035;-77
2023/10/25 11:40:01;;;;;;;6.20;3.13;;;;;;;10.12;100.00;99336.09;4927657;23;20051;-78
2023/10/25 11:42:27;;;;;;;6.68;3.20;;;;;;;10.08;100.00;99334.91;4950483;28;20063;-77
2023/10/25 11:44:55;;;;;;;6.88;3.10;;;;;;;10.04;100.00;99335.59;4953872;28;20027;-77
2023/10/25 11:47:23;;;;;;;6.72;3.50;;;;;;;10.02;100.00;99325.09;4950305;28;20507;-77
2023/10/25 11:49:52;;;;;;;3.70;3.08;;;;;;;10.05;100.00;99305.81;4951505;28;20063;-77
2023/10/25 11:52:25;;;;;;;6.97;3.20;;;;;;;10.00;100.00;99306.50;4952710;28;20038;-77
2023/10/25 11:54:55;;;;;;;4.85;3.35;;;;;;;10.00;100.00;99305.69;4946086;28;20023;-77
2023/10/25 11:57:28;;;;;;;5.85;3.13;;;;;;;9.93;100.00;99297.72;4953560;28;20059;-77
2023/10/25 11:59:53;;;;;;;6.35;3.40;;;;;;;9.94;100.00;99303.91;4949560;28;20496;-78
2023/10/25 12:02:23;;;;;;;8.00;3.42;;;;;;;9.91;100.00;99291.75;4950781;28;20031;-77